Time;durP1;ratioP1;P1;durP2;ratioP2;P2;SDS_P1;SDS_P2;PMS_P1;PMS_P2;Temp;Humidity;BMP_temperature;BMP_pressure;BME280_temperature;BME280_humidity;BME280_pressure;Samples;Min_cycle;Max_cycle;Signal;HPM_P1;HPM_P2
2023/06/17 00:00:36;;;;;;;15.57;10.07;;;12.70;96.60;;;;;;4575762;31;20087;-78
2023/06/17 00:03:07;;;;;;;11.52;10.18;;;12.80;96.80;;;;;;4560857;31;20055;-75
2023/06/17 00:05:55;;;;;;;12.02;9.52;;;12.90;96.70;;;;;;4594513;30;20125;-79
2023/06/17 00:08:59;;;;;;;13.52;11.13;;;13.00;96.70;;;;;;4592371;31;20142;-76
2023/06/17 00:11:56;;;;;;;10.48;8.65;;;13.10;96.60;;;;;;4576388;31;20063;-75
2023/06/17 00:14:25;;;;;;;14.50;9.32;;;13.30;96.80;;;;;;4581783;30;20075;-78
2023/06/17 00:17:17;;;;;;;15.13;11.27;;;13.40;96.60;;;;;;4606466;30;20170;-78
2023/06/17 00:19:50;;;;;;;14.52;10.63;;;13.50;96.70;;;;;;4621269;30;20059;-77
2023/06/17 00:22:34;;;;;;;14.32;11.27;;;13.70;96.90;;;;;;4637355;30;20073;-79
2023/06/17 00:25:21;;;;;;;13.43;9.82;;;13.70;97.00;;;;;;4624015;30;20882;-78
2023/06/17 00:27:54;;;;;;;16.42;11.75;;;13.80;97.10;;;;;;4621216;30;20065;-79
2023/06/17 00:30:24;;;;;;;15.25;12.32;;;13.90;97.10;;;;;;4619175;30;20062;-78
2023/06/17 00:33:04;;;;;;;14.60;12.57;;;14.00;97.40;;;;;;4621819;30;20419;-79
2023/06/17 00:36:00;;;;;;;12.38;11.07;;;14.10;97.30;;;;;;4635936;30;20063;-79
2023/06/17 00:38:29;;;;;;;23.10;14.55;;;14.10;97.30;;;;;;4634083;30;20096;-78
2023/06/17 00:40:59;;;;;;;15.00;12.15;;;14.20;97.40;;;;;;4652027;30;20132;-79
2023/06/17 00:43:47;;;;;;;19.30;14.25;;;14.30;97.40;;;;;;4651572;30;20058;-76
2023/06/17 00:46:39;;;;;;;19.67;13.82;;;14.40;97.60;;;;;;4666259;30;20062;-78
2023/06/17 00:49:48;;;;;;;18.52;13.02;;;14.50;97.70;;;;;;4655794;30;20050;-79
2023/06/17 00:52:19;;;;;;;;;;;14.60;97.60;;;;;;4669152;30;21191;-80
2023/06/17 00:54:46;;;;;;;16.63;12.48;;;14.70;97.90;;;;;;4668639;30;20281;-76
2023/06/17 00:57:57;;;;;;;18.33;12.95;;;14.80;97.00;;;;;;4651244;30;20529;-77
2023/06/17 01:00:33;;;;;;;18.73;14.20;;;14.90;97.30;;;;;;4623134;30;20832;-78
2023/06/17 01:03:02;;;;;;;21.08;16.17;;;15.00;97.10;;;;;;4638302;30;20643;-76
2023/06/17 01:06:17;;;;;;;19.83;14.88;;;15.00;97.00;;;;;;4623627;30;20464;-78
2023/06/17 01:09:09;;;;;;;20.52;15.10;;;14.90;97.10;;;;;;4583391;30;20271;-78
2023/06/17 01:12:03;;;;;;;31.15;19.55;;;15.20;97.20;;;;;;4643986;30;20065;-77
2023/06/17 01:15:19;;;;;;;27.17;16.92;;;15.20;97.20;;;;;;4638087;30;20960;-78
2023/06/17 01:18:33;;;;;;;19.98;14.73;;;14.00;97.10;;;;;;4671901;30;20057;-79
2023/06/17 01:21:05;;;;;;;17.00;13.85;;;15.30;97.40;;;;;;4639908;30;20058;-80
2023/06/17 01:24:12;;;;;;;20.17;16.25;;;15.30;97.10;;;;;;4639438;30;20471;-77
2023/06/17 01:26:57;;;;;;;16.75;14.07;;;15.30;97.30;;;;;;4626864;30;20119;-80
2023/06/17 01:29:37;;;;;;;24.13;16.25;;;15.30;97.10;;;;;;4655116;30;20053;-78
2023/06/17 01:32:16;;;;;;;21.85;16.73;;;15.40;97.10;;;;;;4637561;30;20061;-78
2023/06/17 01:35:09;;;;;;;21.42;15.98;;;15.40;97.10;;;;;;4619078;30;20104;-76
2023/06/17 01:38:05;;;;;;;19.58;15.57;;;15.40;97.30;;;;;;4647499;30;20062;-78
2023/06/17 01:40:41;;;;;;;21.52;15.73;;;15.50;97.20;;;;;;4655156;30;20122;-77
2023/06/17 01:43:26;;;;;;;18.13;13.65;;;15.20;96.90;;;;;;4627493;30;20081;-75
2023/06/17 01:46:01;;;;;;;22.80;16.63;;;14.10;96.50;;;;;;4622424;30;20074;-77
2023/06/17 01:48:49;;;;;;;16.00;14.07;;;15.60;96.80;;;;;;4648405;30;20800;-78
2023/06/17 01:51:17;;;;;;;19.63;17.00;;;15.60;96.80;;;;;;4656298;30;20718;-78
2023/06/17 01:53:48;;;;;;;21.15;16.27;;;15.60;96.90;;;;;;4672521;30;20089;-74
2023/06/17 01:56:24;;;;;;;21.10;18.42;;;15.50;97.00;;;;;;4669871;30;20239;-77
2023/06/17 01:59:36;;;;;;;23.27;17.83;;;15.30;97.10;;;;;;4671830;30;20063;-74
2023/06/17 02:02:45;;;;;;;19.23;16.40;;;15.50;97.20;;;;;;4641879;30;20126;-78
2023/06/17 02:05:21;;;;;;;22.20;18.20;;;15.50;97.30;;;;;;4639507;30;20057;-77
2023/06/17 02:08:34;;;;;;;18.95;16.15;;;15.50;97.10;;;;;;4637284;30;20905;-77
2023/06/17 02:11:14;;;;;;;23.20;16.60;;;15.40;97.20;;;;;;4685895;30;20061;-77
2023/06/17 02:13:54;;;;;;;20.33;16.00;;;15.50;97.20;;;;;;4672002;30;20067;-77
2023/06/17 02:16:33;;;;;;;26.48;18.42;;;15.50;97.20;;;;;;4670392;30;20045;-78
2023/06/17 02:19:04;;;;;;;21.70;17.80;;;15.50;97.20;;;;;;4671897;30;21210;-77
2023/06/17 02:22:05;;;;;;;19.95;17.05;;;15.10;97.20;;;;;;4658443;30;20160;-76
2023/06/17 02:24:44;;;;;;;22.08;17.15;;;15.50;97.40;;;;;;4691806;30;20062;-77
2023/06/17 02:27:45;;;;;;;26.50;19.23;;;15.50;97.30;;;;;;4688571;30;20150;-77
2023/06/17 02:30:21;;;;;;;22.92;18.00;;;15.50;97.30;;;;;;4672234;30;20331;-77
2023/06/17 02:33:11;;;;;;;22.42;19.33;;;15.50;97.50;;;;;;4686987;30;20182;-75
2023/06/17 02:35:57;;;;;;;21.27;18.52;;;15.50;97.60;;;;;;4686836;30;20114;-77
2023/06/17 02:38:26;;;;;;;19.92;16.00;;;15.50;97.50;;;;;;4670893;30;20144;-77
2023/06/17 02:40:56;;;;;;;;;;;15.50;97.50;;;;;;4672265;30;20899;-76
2023/06/17 02:43:24;;;;;;;26.55;17.75;;;16.30;97.90;;;;;;4641745;30;19998;-77
2023/06/17 02:45:57;;;;;;;22.20;16.63;;;15.50;97.30;;;;;;4655730;30;20629;-78
2023/06/17 02:48:51;;;;;;;19.60;15.93;;;15.50;97.30;;;;;;4640638;30;20417;-75
2023/06/17 02:51:17;;;;;;;22.10;16.70;;;15.50;97.30;;;;;;4647134;30;20101;-74
2023/06/17 02:53:53;;;;;;;26.75;18.25;;;15.50;97.40;;;;;;4645611;30;20066;-78
2023/06/17 02:56:28;;;;;;;;;;;15.50;97.40;;;;;;4627430;30;20080;-79
2023/06/17 02:59:12;;;;;;;25.98;18.58;;;15.50;97.60;;;;;;4672369;30;19923;-77
2023/06/17 03:01:43;;;;;;;20.90;17.08;;;14.10;96.90;;;;;;4682205;30;20060;-77
2023/06/17 03:04:35;;;;;;;24.98;18.20;;;15.50;97.40;;;;;;4709990;30;20150;-78
2023/06/17 03:07:20;;;;;;;24.05;19.10;;;15.30;97.40;;;;;;4674989;30;20103;-75
2023/06/17 03:09:54;;;;;;;23.98;18.52;;;15.50;97.40;;;;;;4680669;30;20056;-78
2023/06/17 03:12:45;;;;;;;21.35;17.17;;;15.50;97.50;;;;;;4695785;30;20056;-77
2023/06/17 03:15:13;;;;;;;27.40;18.55;;;15.60;97.50;;;;;;4693591;30;20063;-77
2023/06/17 03:17:41;;;;;;;22.73;17.88;;;15.60;97.50;;;;;;4724470;30;20859;-76
2023/06/17 03:20:13;;;;;;;24.02;18.60;;;14.20;97.10;;;;;;4711264;30;20065;-77
2023/06/17 03:22:47;;;;;;;25.15;18.58;;;16.90;97.80;;;;;;4715837;29;20183;-78
2023/06/17 03:25:53;;;;;;;22.60;18.30;;;15.60;97.50;;;;;;4728089;29;20137;-77
2023/06/17 03:28:45;;;;;;;23.38;18.48;;;15.70;97.50;;;;;;4694439;30;20281;-77
2023/06/17 03:31:20;;;;;;;21.95;18.08;;;15.70;97.40;;;;;;4691415;30;20056;-77
2023/06/17 03:34:04;;;;;;;25.05;18.52;;;15.60;97.40;;;;;;4676289;30;20266;-77
2023/06/17 03:36:33;;;;;;;23.25;19.55;;;15.60;97.40;;;;;;4675710;30;20057;-76
2023/06/17 03:39:21;;;;;;;26.73;20.83;;;15.60;97.50;;;;;;4690813;30;20059;-81
2023/06/17 03:41:52;;;;;;;27.67;21.13;;;17.70;98.30;;;;;;4657254;30;20908;-78
2023/06/17 03:44:26;;;;;;;27.97;20.60;;;15.60;97.60;;;;;;4656202;30;20849;-76
2023/06/17 03:47:04;;;;;;;20.70;17.70;;;15.60;97.60;;;;;;4658869;30;21788;-78
2023/06/17 03:49:44;;;;;;;24.95;19.48;;;15.60;97.70;;;;;;4657214;30;21217;-76
2023/06/17 03:52:15;;;;;;;28.27;22.00;;;15.60;97.70;;;;;;4657515;30;20061;-78
2023/06/17 03:54:45;;;;;;;28.80;20.80;;;15.60;97.70;;;;;;4655170;30;20065;-77
2023/06/17 03:57:41;;;;;;;27.73;20.42;;;15.60;97.70;;;;;;4656005;30;20065;-78
2023/06/17 04:00:31;;;;;;;23.13;18.58;;;15.70;97.80;;;;;;4654337;30;20057;-79
2023/06/17 04:03:19;;;;;;;24.05;20.33;;;15.60;97.70;;;;;;4654920;30;20523;-77
2023/06/17 04:05:58;;;;;;;26.38;19.65;;;15.60;97.80;;;;;;4662829;30;20171;-76
2023/06/17 04:08:27;;;;;;;26.10;20.35;;;15.60;97.80;;;;;;4700097;30;20068;-78
2023/06/17 04:10:57;;;;;;;22.02;18.27;;;15.70;97.80;;;;;;4723577;30;20091;-75
2023/06/17 04:13:44;;;;;;;26.55;19.38;;;15.70;97.80;;;;;;4722305;30;20054;-80
2023/06/17 04:16:17;;;;;;;35.85;22.58;;;15.70;97.90;;;;;;4724460;30;20086;-80
2023/06/17 04:18:46;;;;;;;28.15;22.00;;;15.70;97.90;;;;;;4692019;30;20116;-78
2023/06/17 04:21:22;;;;;;;29.73;22.67;;;15.80;98.00;;;;;;4708043;30;20059;-78
2023/06/17 04:24:11;;;;;;;25.27;19.00;;;15.80;97.80;;;;;;4711354;30;20060;-79
2023/06/17 04:27:11;;;;;;;26.75;17.92;;;15.80;97.80;;;;;;4727981;30;20110;-78
2023/06/17 04:29:55;;;;;;;26.52;19.55;;;15.90;97.80;;;;;;4713202;30;20055;-78
2023/06/17 04:32:50;;;;;;;23.38;18.45;;;15.90;97.60;;;;;;4709837;30;20148;-79
2023/06/17 04:35:41;;;;;;;23.52;17.67;;;16.00;97.50;;;;;;4674474;30;20113;-79
2023/06/17 04:38:27;;;;;;;23.40;18.30;;;16.10;97.30;;;;;;4690836;30;20994;-77
2023/06/17 04:41:08;;;;;;;28.42;20.48;;;16.10;97.30;;;;;;4692045;30;20053;-78
2023/06/17 04:43:48;;;;;;;25.08;21.20;;;16.20;97.20;;;;;;4678030;30;20068;-79
2023/06/17 04:46:37;;;;;;;24.98;19.55;;;14.20;96.70;;;;;;4677896;30;20056;-79
2023/06/17 04:49:18;;;;;;;19.42;17.35;;;16.20;97.20;;;;;;4676553;30;20069;-81
2023/06/17 04:51:45;;;;;;;24.35;20.17;;;16.20;97.10;;;;;;4694804;30;20105;-79
2023/06/17 04:54:39;;;;;;;21.58;18.23;;;16.20;97.30;;;;;;4708380;30;20255;-74
2023/06/17 04:57:10;;;;;;;20.88;18.63;;;16.20;97.00;;;;;;4693359;30;20174;-78
2023/06/17 04:59:56;;;;;;;21.23;16.70;;;16.20;96.90;;;;;;4696207;30;20195;-78
2023/06/17 05:02:45;;;;;;;27.05;20.42;;;16.30;96.90;;;;;;4708540;30;20567;-79
2023/06/17 05:05:29;;;;;;;20.08;17.88;;;16.30;96.80;;;;;;4674042;30;20109;-79
2023/06/17 05:08:17;;;;;;;25.83;19.52;;;16.40;96.70;;;;;;4687251;30;20130;-78
2023/06/17 05:11:09;;;;;;;29.48;18.73;;;16.40;96.60;;;;;;4685270;30;20084;-80
2023/06/17 05:13:43;;;;;;;25.13;19.30;;;16.50;96.60;;;;;;4687368;30;20167;-81
2023/06/17 05:16:39;;;;;;;25.25;20.70;;;16.50;96.50;;;;;;4635897;30;20058;-79
2023/06/17 05:19:08;;;;;;;;;;;16.50;96.50;;;;;;4624616;30;20642;-78
2023/06/17 05:21:42;;;;;;;25.23;18.95;;;16.60;96.60;;;;;;4624912;30;21089;-80
2023/06/17 05:24:23;;;;;;;28.58;19.55;;;16.60;96.30;;;;;;4630588;30;20061;-81
2023/06/17 05:27:00;;;;;;;20.38;17.88;;;16.60;96.30;;;;;;4671600;30;20114;-76
2023/06/17 05:29:37;;;;;;;27.15;20.95;;;15.30;96.00;;;;;;4656910;30;20204;-80
2023/06/17 05:32:32;;;;;;;22.17;18.75;;;16.60;96.30;;;;;;4671827;30;20049;-82
2023/06/17 05:35:10;;;;;;;23.88;18.40;;;16.60;96.40;;;;;;4641460;30;20108;-79
2023/06/17 05:37:51;;;;;;;24.77;19.73;;;16.60;96.30;;;;;;4654915;30;21170;-82
2023/06/17 05:40:29;;;;;;;23.95;19.35;;;16.60;96.30;;;;;;4655480;30;20058;-81
2023/06/17 05:43:01;;;;;;;21.20;17.42;;;16.60;96.30;;;;;;4651842;30;20114;-78
2023/06/17 05:45:55;;;;;;;22.23;17.90;;;16.60;96.30;;;;;;4640317;30;20057;-81
2023/06/17 05:49:14;;;;;;;23.95;16.58;;;16.60;96.20;;;;;;4654202;30;20056;-75
2023/06/17 05:52:10;;;;;;;20.42;17.67;;;16.70;96.10;;;;;;4643528;30;20054;-80
2023/06/17 05:54:40;;;;;;;21.20;17.83;;;16.80;96.10;;;;;;4671963;30;20147;-77
2023/06/17 05:57:14;;;;;;;24.98;18.38;;;16.80;96.00;;;;;;4675630;30;20078;-80
2023/06/17 06:00:12;;;;;;;22.33;18.70;;;16.90;96.00;;;;;;4620759;30;20600;-78
2023/06/17 06:03:04;;;;;;;19.65;16.90;;;16.90;95.90;;;;;;4621218;30;20265;-81
2023/06/17 06:06:04;;;;;;;23.17;16.25;;;16.90;95.90;;;;;;4608380;30;20390;-81
2023/06/17 06:08:32;;;;;;;22.05;16.55;;;17.00;95.90;;;;;;4635998;30;20066;-80
2023/06/17 06:11:48;;;;;;;19.27;17.17;;;17.00;95.80;;;;;;4624192;30;20164;-77
2023/06/17 06:14:33;;;;;;;23.42;16.77;;;17.10;95.80;;;;;;4572803;30;20142;-82
2023/06/17 06:17:06;;;;;;;16.88;13.80;;;17.10;95.70;;;;;;4569978;30;20071;-81
2023/06/17 06:19:32;;;;;;;17.40;13.75;;;17.10;95.70;;;;;;4573347;30;20261;-81
2023/06/17 06:22:06;;;;;;;23.58;17.15;;;17.10;95.60;;;;;;4571964;30;20059;-79
2023/06/17 06:25:04;;;;;;;16.80;13.77;;;17.20;95.50;;;;;;4570904;30;20199;-79
2023/06/17 06:27:45;;;;;;;17.90;14.88;;;15.70;95.10;;;;;;4574419;30;20063;-80
2023/06/17 06:30:20;;;;;;;19.98;14.90;;;17.30;95.30;;;;;;4576789;30;20047;-78
2023/06/17 06:32:55;;;;;;;17.25;13.85;;;18.00;95.40;;;;;;4618742;30;20116;-77
2023/06/17 06:35:30;;;;;;;17.77;15.25;;;17.40;95.10;;;;;;4594902;30;20153;-83
2023/06/17 06:38:36;;;;;;;17.48;14.32;;;17.50;94.90;;;;;;4632947;30;20057;-79
2023/06/17 06:41:22;;;;;;;;;;;17.50;94.90;;;;;;4641270;30;20062;-76
2023/06/17 06:44:12;;;;;;;17.00;13.40;;;17.60;94.80;;;;;;4654897;30;19935;-80
2023/06/17 06:46:48;;;;;;;17.73;14.90;;;17.70;94.70;;;;;;4664237;30;20636;-79
2023/06/17 06:49:21;;;;;;;19.48;15.85;;;17.70;94.50;;;;;;4712284;30;20190;-80
2023/06/17 06:52:30;;;;;;;17.75;15.18;;;17.80;94.40;;;;;;4694966;30;20103;-79
2023/06/17 06:56:00;;;;;;;17.67;11.95;;;17.90;94.40;;;;;;4672555;30;21281;-80
2023/06/17 06:58:56;;;;;;;19.35;13.48;;;18.10;94.30;;;;;;4647752;30;20694;-80
2023/06/17 07:01:27;;;;;;;23.80;14.65;;;18.20;94.10;;;;;;4660769;30;20559;-80
2023/06/17 07:04:31;;;;;;;17.02;13.98;;;18.40;93.90;;;;;;4677125;30;20084;-79
2023/06/17 07:07:14;;;;;;;17.90;13.80;;;18.50;93.60;;;;;;4660965;30;20214;-80
2023/06/17 07:10:05;;;;;;;17.52;13.95;;;18.50;93.40;;;;;;4665333;30;20599;-79
2023/06/17 07:12:38;;;;;;;15.68;13.00;;;18.70;93.30;;;;;;4662245;30;20095;-82
2023/06/17 07:15:17;;;;;;;16.00;13.23;;;18.80;93.30;;;;;;4642224;30;20169;-79
2023/06/17 07:17:55;;;;;;;18.42;13.40;;;18.90;92.90;;;;;;4613470;30;20365;-77
2023/06/17 07:20:24;;;;;;;14.35;11.68;;;16.80;92.00;;;;;;4597237;30;20145;-78
2023/06/17 07:23:13;;;;;;;14.60;12.23;;;19.10;92.30;;;;;;4627439;30;20882;-81
2023/06/17 07:26:25;;;;;;;14.63;10.73;;;19.30;92.10;;;;;;4655274;30;20065;-80
2023/06/17 07:29:16;;;;;;;14.00;11.67;;;19.50;92.00;;;;;;4643562;30;20071;-78
2023/06/17 07:31:51;;;;;;;11.80;10.55;;;19.70;91.70;;;;;;4664525;30;20676;-80
2023/06/17 07:34:19;;;;;;;12.18;10.88;;;18.10;91.00;;;;;;4692368;30;20084;-80
2023/06/17 07:37:03;;;;;;;15.15;10.82;;;19.80;91.20;;;;;;4678516;30;21642;-81
2023/06/17 07:39:51;;;;;;;15.13;12.00;;;19.90;90.90;;;;;;4695286;30;20224;-77
2023/06/17 07:43:00;;;;;;;14.02;11.55;;;20.00;90.70;;;;;;4657916;30;20057;-79
2023/06/17 07:45:37;;;;;;;12.38;10.43;;;20.20;90.50;;;;;;4657907;30;20142;-77
2023/06/17 07:48:27;;;;;;;15.25;10.70;;;20.50;90.30;;;;;;4639366;30;20057;-78
2023/06/17 07:51:01;;;;;;;15.18;11.48;;;20.70;88.80;;;;;;4623415;30;20062;-79
2023/06/17 07:53:54;;;;;;;14.15;9.63;;;20.90;88.50;;;;;;4608551;30;20075;-77
2023/06/17 07:56:25;;;;;;;16.48;11.13;;;21.30;88.50;;;;;;4592143;30;20090;-78
2023/06/17 07:59:00;;;;;;;12.40;10.32;;;21.70;87.70;;;;;;4577289;31;20071;-77
2023/06/17 08:01:39;;;;;;;12.75;9.60;;;22.30;86.50;;;;;;4590976;31;20119;-76
2023/06/17 08:04:17;;;;;;;12.50;10.25;;;23.10;85.00;;;;;;4588313;30;20071;-78
2023/06/17 08:06:50;;;;;;;10.10;8.65;;;23.00;83.50;;;;;;4590329;30;20051;-79
2023/06/17 08:09:42;;;;;;;13.95;10.07;;;23.00;82.80;;;;;;4591806;30;20083;-76
2023/06/17 08:12:40;;;;;;;14.57;8.73;;;24.40;80.70;;;;;;4558357;31;21049;-77
2023/06/17 08:15:13;;;;;;;12.52;10.05;;;27.30;77.10;;;;;;4545512;31;20159;-75
2023/06/17 08:17:42;;;;;;;13.98;8.98;;;27.80;71.80;;;;;;4566176;30;20071;-77
2023/06/17 08:20:41;;;;;;;10.70;9.35;;;27.70;69.60;;;;;;4617085;30;20155;-76
2023/06/17 08:23:29;;;;;;;13.02;9.52;;;27.40;68.50;;;;;;4625957;30;20061;-77
2023/06/17 08:25:56;;;;;;;11.85;8.93;;;26.80;68.00;;;;;;4625311;30;20069;-79
2023/06/17 08:28:57;;;;;;;11.70;9.10;;;28.10;69.10;;;;;;4630316;30;20594;-77
2023/06/17 08:31:33;;;;;;;12.70;8.57;;;28.10;67.10;;;;;;4635884;30;20058;-76
2023/06/17 08:34:06;;;;;;;13.10;9.52;;;30.10;63.70;;;;;;4658094;30;20050;-74
2023/06/17 08:36:55;;;;;;;12.68;9.10;;;30.40;61.60;;;;;;4669153;30;20850;-79
2023/06/17 08:39:31;;;;;;;11.60;9.23;;;30.10;60.30;;;;;;4669776;30;20069;-78
2023/06/17 08:42:28;;;;;;;14.00;8.90;;;30.00;59.70;;;;;;4658316;30;20152;-79
2023/06/17 08:45:14;;;;;;;11.00;8.65;;;31.50;59.20;;;;;;4641813;30;20093;-80
2023/06/17 08:48:23;;;;;;;11.95;10.65;;;33.00;56.30;;;;;;4653579;30;20548;-74
2023/06/17 08:51:33;;;;;;;10.25;8.45;;;34.60;53.60;;;;;;4681009;30;20143;-76
2023/06/17 08:54:40;;;;;;;9.20;7.72;;;35.50;50.60;;;;;;4645977;30;20610;-78
2023/06/17 08:57:13;;;;;;;10.40;7.18;;;36.30;49.30;;;;;;4656163;30;20061;-75
2023/06/17 08:59:43;;;;;;;9.73;8.73;;;36.20;47.70;;;;;;4655246;30;20053;-77
2023/06/17 09:02:33;;;;;;;11.68;7.70;;;37.40;46.20;;;;;;4641957;30;20293;-76
2023/06/17 09:05:01;;;;;;;8.43;7.47;;;38.50;46.40;;;;;;4642461;30;20073;-73
2023/06/17 09:08:05;;;;;;;8.52;7.40;;;38.90;44.40;;;;;;4640687;30;20066;-78
2023/06/17 09:10:53;;;;;;;8.30;6.57;;;39.40;45.00;;;;;;4643422;30;20160;-78
2023/06/17 09:13:31;;;;;;;7.80;5.70;;;39.80;44.50;;;;;;4655423;30;20069;-77
2023/06/17 09:16:46;;;;;;;9.55;7.20;;;39.20;42.60;;;;;;4639032;30;20080;-76
2023/06/17 09:19:33;;;;;;;8.63;6.75;;;40.60;42.10;;;;;;4630417;30;20077;-74
2023/06/17 09:22:26;;;;;;;7.88;6.38;;;40.70;40.90;;;;;;4623468;30;20570;-78
2023/06/17 09:25:30;;;;;;;8.95;5.88;;;40.70;40.70;;;;;;4620325;30;20138;-75
2023/06/17 09:28:09;;;;;;;12.73;6.82;;;40.90;40.40;;;;;;4606313;30;20066;-77
2023/06/17 09:30:48;;;;;;;8.85;6.80;;;41.20;40.10;;;;;;4618560;30;20305;-76
2023/06/17 09:33:23;;;;;;;8.90;6.75;;;41.50;40.40;;;;;;4653141;30;20058;-78
2023/06/17 09:36:05;;;;;;;9.13;7.05;;;41.60;39.10;;;;;;4642747;30;20163;-76
2023/06/17 09:38:54;;;;;;;9.63;6.50;;;43.30;40.20;;;;;;4642206;30;20147;-79
2023/06/17 09:41:53;;;;;;;9.50;7.25;;;41.90;39.00;;;;;;4621615;30;21390;-77
2023/06/17 09:44:32;;;;;;;8.63;5.90;;;42.10;38.30;;;;;;4607290;30;20077;-79
2023/06/17 09:47:41;;;;;;;7.68;6.53;;;42.40;39.20;;;;;;4609660;30;20069;-77
2023/06/17 09:50:24;;;;;;;9.82;7.35;;;42.40;37.90;;;;;;4591023;30;20121;-76
2023/06/17 09:53:15;;;;;;;11.35;6.95;;;42.60;37.80;;;;;;4611797;30;20240;-77
2023/06/17 09:55:44;;;;;;;7.30;5.47;;;42.60;37.50;;;;;;4621794;30;20062;-77
2023/06/17 09:58:19;;;;;;;6.18;4.82;;;42.50;38.50;;;;;;4625459;30;20497;-79
2023/06/17 10:00:54;;;;;;;9.05;5.45;;;42.30;39.00;;;;;;4644686;30;20569;-79
2023/06/17 10:03:30;;;;;;;7.85;5.60;;;42.30;38.70;;;;;;4658577;30;20069;-81
2023/06/17 10:06:37;;;;;;;7.75;5.18;;;42.30;37.60;;;;;;4642060;30;20057;-80
2023/06/17 10:09:10;;;;;;;9.00;5.47;;;42.40;38.80;;;;;;4636534;30;20085;-79
2023/06/17 10:12:26;;;;;;;9.43;5.35;;;42.30;37.30;;;;;;4630811;30;20068;-80
2023/06/17 10:15:08;;;;;;;5.90;4.68;;;42.00;38.50;;;;;;4622325;30;20675;-79
2023/06/17 10:17:43;;;;;;;6.18;4.93;;;42.00;36.80;;;;;;4622476;30;20098;-79
2023/06/17 10:20:19;;;;;;;9.48;5.18;;;41.70;37.60;;;;;;4593838;30;20067;-80
2023/06/17 10:22:57;;;;;;;9.10;5.10;;;41.40;38.00;;;;;;4622826;30;20073;-78
2023/06/17 10:26:04;;;;;;;7.75;5.18;;;41.00;39.00;;;;;;4617957;30;20066;-79
2023/06/17 10:28:54;;;;;;;8.77;5.57;;;40.20;39.80;;;;;;4622684;30;20089;-80
2023/06/17 10:31:52;;;;;;;8.07;5.40;;;39.90;39.90;;;;;;4607064;30;20093;-79
2023/06/17 10:35:09;;;;;;;8.60;5.70;;;39.80;39.50;;;;;;4572030;31;20066;-79
2023/06/17 10:37:54;;;;;;;9.23;5.70;;;39.50;40.20;;;;;;4554640;31;20868;-80
2023/06/17 10:40:35;;;;;;;5.43;4.55;;;39.10;38.90;;;;;;4555331;31;20060;-79
2023/06/17 10:43:18;;;;;;;7.03;4.53;;;39.20;39.40;;;;;;4542689;31;20070;-78
2023/06/17 10:45:59;;;;;;;11.15;6.13;;;39.00;39.50;;;;;;4553297;31;20071;-80
2023/06/17 10:48:42;;;;;;;9.50;5.30;;;38.60;38.20;;;;;;4590665;30;21022;-80
2023/06/17 10:51:39;;;;;;;8.02;5.38;;;37.90;39.90;;;;;;4606546;30;20430;-78
2023/06/17 10:54:12;;;;;;;7.05;5.72;;;36.60;41.60;;;;;;4670343;30;20228;-78
2023/06/17 10:57:10;;;;;;;8.10;5.82;;;35.50;42.60;;;;;;4659452;30;20148;-76
2023/06/17 11:00:07;;;;;;;8.07;5.70;;;34.30;43.10;;;;;;4647238;30;20508;-77
2023/06/17 11:02:52;;;;;;;9.23;5.57;;;33.40;44.60;;;;;;4678343;30;20097;-77
2023/06/17 11:05:18;;;;;;;8.18;5.00;;;32.70;46.20;;;;;;4674573;30;20079;-77
2023/06/17 11:07:51;;;;;;;5.93;4.13;;;32.10;47.80;;;;;;4666120;30;20144;-80
2023/06/17 11:10:31;;;;;;;5.65;4.60;;;29.70;47.90;;;;;;4694405;30;20229;-78
2023/06/17 11:13:33;;;;;;;8.25;5.47;;;30.90;49.80;;;;;;4731318;30;20143;-81
2023/06/17 11:16:08;;;;;;;8.27;4.93;;;30.40;49.70;;;;;;4731241;30;20700;-78
2023/06/17 11:19:15;;;;;;;5.82;4.88;;;30.00;49.60;;;;;;4731887;30;20787;-78
2023/06/17 11:22:03;;;;;;;7.47;4.38;;;29.60;51.00;;;;;;4748257;30;20961;-78
2023/06/17 11:24:42;;;;;;;7.22;5.40;;;29.40;52.30;;;;;;4734942;30;20052;-78
2023/06/17 11:31:25;;;;;;;7.85;4.78;;;29.00;53.40;;;;;;4727163;30;20143;-77
2023/06/17 11:33:59;;;;;;;11.10;5.38;;;28.90;54.10;;;;;;4741020;30;20071;-78
2023/06/17 11:36:38;;;;;;;6.38;5.30;;;28.70;55.00;;;;;;4753157;29;20054;-77
2023/06/17 11:39:15;;;;;;;6.93;5.15;;;28.60;55.30;;;;;;4769989;29;20058;-79
2023/06/17 11:42:01;;;;;;;9.30;5.53;;;28.50;55.80;;;;;;4769549;29;20062;-79
2023/06/17 11:45:07;;;;;;;5.95;5.35;;;28.40;54.50;;;;;;4753205;29;20055;-79
2023/06/17 11:47:46;;;;;;;9.48;5.65;;;28.20;55.70;;;;;;4749266;29;20601;-79
2023/06/17 11:50:30;;;;;;;10.15;5.97;;;28.20;54.70;;;;;;4748316;29;20078;-79
2023/06/17 11:53:16;;;;;;;7.68;5.47;;;30.00;55.90;;;;;;4763405;29;20397;-79
2023/06/17 11:55:58;;;;;;;10.43;5.90;;;27.90;56.00;;;;;;4750333;29;20059;-78
2023/06/17 11:58:29;;;;;;;6.35;5.45;;;27.90;56.50;;;;;;4764269;29;20051;-77
2023/06/17 12:01:05;;;;;;;8.18;5.40;;;27.80;57.00;;;;;;4750270;29;20251;-77
2023/06/17 12:03:56;;;;;;;8.50;5.35;;;27.80;57.80;;;;;;4693849;30;20108;-78
2023/06/17 12:06:27;;;;;;;7.47;5.07;;;27.80;57.10;;;;;;4676313;30;20064;-77
2023/06/17 12:09:08;;;;;;;6.65;4.70;;;26.70;56.80;;;;;;4679283;30;20072;-77
2023/06/17 12:12:01;;;;;;;6.38;4.25;;;29.50;58.70;;;;;;4680296;30;20072;-82
2023/06/17 12:14:41;;;;;;;8.70;4.65;;;28.20;58.30;;;;;;4675953;30;20065;-75
2023/06/17 12:17:19;;;;;;;7.85;4.78;;;27.70;58.10;;;;;;4698527;30;20101;-77
2023/06/17 12:23:01;;;;;;;8.40;5.60;;;27.60;57.90;;;;;;4706983;30;20520;-78
2023/06/17 12:25:59;;;;;;;6.72;4.25;;;28.40;57.30;;;;;;4680192;30;20977;-76
2023/06/17 12:28:53;;;;;;;5.97;4.60;;;27.10;57.10;;;;;;4698709;30;20068;-76
2023/06/17 12:31:42;;;;;;;7.30;4.50;;;27.30;58.00;;;;;;4710846;30;20056;-78
2023/06/17 12:34:14;;;;;;;5.72;4.40;;;27.20;58.60;;;;;;4708464;30;20179;-76
2023/06/17 12:36:53;;;;;;;5.55;3.80;;;27.20;58.30;;;;;;4692859;30;20065;-75
2023/06/17 12:39:25;;;;;;;8.55;4.28;;;27.20;57.80;;;;;;4694315;30;20200;-80
2023/06/17 12:41:56;;;;;;;6.18;4.90;;;27.20;58.60;;;;;;4667208;30;20069;-77
2023/06/17 12:44:24;;;;;;;10.18;5.50;;;27.20;59.00;;;;;;4674827;30;20057;-78
2023/06/17 12:46:59;;;;;;;8.45;5.60;;;27.20;58.60;;;;;;4713858;30;20125;-79
2023/06/17 12:49:33;;;;;;;7.50;5.68;;;27.10;59.00;;;;;;4713149;30;20151;-78
2023/06/17 12:52:27;;;;;;;8.02;5.50;;;27.20;59.10;;;;;;4729968;30;20827;-79
2023/06/17 12:55:17;;;;;;;7.57;5.35;;;27.10;59.10;;;;;;4706455;30;20202;-78
2023/06/17 12:57:48;;;;;;;9.30;5.30;;;27.20;59.90;;;;;;4678809;30;20151;-77
2023/06/17 13:00:18;;;;;;;10.13;5.63;;;27.20;59.50;;;;;;4705762;30;20056;-77
2023/06/17 13:03:17;;;;;;;5.93;4.30;;;27.10;59.20;;;;;;4674654;30;20064;-79
2023/06/17 13:06:25;;;;;;;7.75;4.68;;;27.10;59.30;;;;;;4646242;30;20109;-79
2023/06/17 13:09:02;;;;;;;8.68;5.47;;;27.10;59.10;;;;;;4640937;30;20219;-77
2023/06/17 13:11:36;;;;;;;5.43;4.83;;;27.10;58.70;;;;;;4649558;30;20119;-77
2023/06/17 13:14:13;;;;;;;11.75;5.88;;;26.20;58.50;;;;;;4672565;30;20144;-75
2023/06/17 13:16:53;;;;;;;6.60;5.03;;;27.10;60.50;;;;;;4666647;30;20061;-78
2023/06/17 13:19:44;;;;;;;7.20;4.70;;;27.10;61.50;;;;;;4640421;30;20053;-81
2023/06/17 13:22:13;;;;;;;8.88;5.38;;;27.10;57.50;;;;;;4653745;30;20057;-78
2023/06/17 13:24:49;;;;;;;9.02;5.07;;;26.90;58.50;;;;;;4655864;30;20290;-78
2023/06/17 13:28:25;;;;;;;8.43;4.82;;;26.90;59.30;;;;;;4637431;30;20640;-76
2023/06/17 13:31:04;;;;;;;10.05;4.88;;;26.90;59.70;;;;;;4626406;30;20703;-76
2023/06/17 13:33:51;;;;;;;7.47;5.10;;;26.90;59.00;;;;;;4664619;30;20420;-77
2023/06/17 13:36:28;;;;;;;5.80;4.45;;;26.90;59.90;;;;;;4694925;30;20303;-77
2023/06/17 13:39:00;;;;;;;7.90;5.28;;;26.90;60.10;;;;;;4710379;30;20060;-76
2023/06/17 13:41:30;;;;;;;7.47;5.13;;;26.90;59.00;;;;;;4710548;30;20075;-77
2023/06/17 13:44:35;;;;;;;7.10;5.28;;;26.80;59.50;;;;;;4676032;30;20163;-76
2023/06/17 13:47:06;;;;;;;8.40;5.10;;;26.80;59.90;;;;;;4658831;30;20061;-78
2023/06/17 13:49:35;;;;;;;7.13;5.05;;;26.80;59.30;;;;;;4659235;30;20397;-77
2023/06/17 13:52:16;;;;;;;13.27;5.57;;;26.80;59.70;;;;;;4675301;30;20057;-77
2023/06/17 13:54:42;;;;;;;8.98;5.47;;;26.70;58.80;;;;;;4685144;30;20061;-78
2023/06/17 13:57:25;;;;;;;7.18;4.95;;;26.60;58.10;;;;;;4679840;30;20069;-77
2023/06/17 14:00:02;;;;;;;10.07;6.15;;;26.60;58.60;;;;;;4712201;30;20094;-76
2023/06/17 14:02:47;;;;;;;7.18;5.20;;;26.60;58.60;;;;;;4727812;30;20222;-72
2023/06/17 14:05:25;;;;;;;6.47;4.85;;;26.50;59.30;;;;;;4662387;30;20079;-79
2023/06/17 14:08:01;;;;;;;8.25;5.53;;;26.50;58.00;;;;;;4660310;30;20147;-79